This is the latest recevied weather packets stored in our database for station/object F4MLU-13. If no packets are shown the sender has not sent any weather packets the latest 10 day(s).
| Time | Temp. | Humidity | Pressure | Rain* | Wind** | Luminosity | Snow |
|---|---|---|---|---|---|---|---|
| 1778018445 | 9.44° C | 97% | - | 0 mm | - | - | - |
| 1778014525 | 9.44° C | 98% | - | 0 mm | - | - | - |
| 1778012155 | 9.44° C | 98% | - | 0 mm | - | - | - |
| 1778002846 | 12.78° C | 86% | - | 0 mm | - | - | - |
| 1778001026 | 13.33° C | 85% | - | 0 mm | - | - | - |
| 1777999826 | 13.89° C | 82% | - | 0 mm | - | - | - |
| 1777998625 | 14.44° C | 83% | - | 0 mm | - | - | - |
| 1777993226 | 12.78° C | 91% | - | 6.1 mm | - | - | - |
| 1777988426 | 10.56° C | 95% | - | 29.97 mm | - | - | - |
| 1777980626 | 17.78° C | 64% | - | 0 mm | - | - | - |
| 1777975226 | 16.67° C | 71% | - | 0 mm | - | - | - |
| 1777972826 | 15° C | 79% | - | 0 mm | - | - | - |
| 1777957257 | 8.89° C | 99% | - | 0 mm | - | - | - |
| 1777956027 | 8.89° C | 99% | - | 0 mm | - | - | - |
| 1777950647 | 7.78° C | 99% | - | 0 mm | - | - | - |
| 1777948867 | 7.22° C | 99% | - | 0 mm | - | - | - |
| 1777947627 | 7.22° C | 99% | - | 0 mm | - | - | - |
| 1777941627 | 8.33° C | 99% | - | 0 mm | - | - | - |
| 1777941067 | 8.33° C | 99% | - | 0 mm | - | - | - |
| 1777939227 | 8.89° C | 99% | - | 0 mm | - | - | - |
| 1777937428 | 9.44° C | 98% | - | 0 mm | - | - | - |
| 1777936828 | 10° C | 98% | - | 0 mm | - | - | - |
| 1777929028 | 10.56° C | 97% | - | 0 mm | - | - | - |
| 1777924848 | 10.56° C | 96% | - | 0 mm | - | - | - |
| 1777923628 | 10° C | 97% | - | 0 mm | - | - | - |
* Rain latest hour (hover to see other rain measurements)
** Current wind speed in m/s (hover to see current wind gust speed)